createdAt,value
2018-05-16T00:03:29.525Z,74.85
2018-05-16T00:08:25.777Z,74.55
2018-05-16T00:13:21.920Z,73.98
2018-05-16T00:18:17.967Z,74.65
2018-05-16T00:23:13.612Z,75.23
2018-05-16T00:28:10.593Z,77.34
2018-05-16T00:33:07.051Z,78.02
2018-05-16T00:38:02.547Z,79.32
2018-05-16T00:42:59.313Z,80.09
2018-05-16T00:47:55.952Z,84.18
2018-05-16T00:52:51.966Z,84.75
2018-05-16T00:57:47.565Z,85.81
2018-05-16T01:02:44.447Z,87.05
2018-05-16T01:07:41.307Z,86.92
2018-05-16T01:12:37.590Z,86.96
2018-05-16T01:17:33.580Z,88.55
2018-05-16T01:22:29.413Z,90.18
2018-05-16T01:27:25.199Z,89.99
2018-05-16T01:32:21.318Z,90.28
2018-05-16T01:37:17.059Z,90.18
2018-05-16T01:42:13.227Z,90.37
2018-05-16T01:47:09.117Z,91.86
2018-05-16T01:52:05.347Z,92.72
2018-05-16T01:57:01.075Z,96.32
2018-05-16T02:01:57.027Z,95.26
2018-05-16T02:06:52.586Z,97.28
2018-05-16T02:11:48.192Z,98.24
2018-05-16T02:16:44.497Z,98.47
2018-05-16T02:21:40.743Z,99.01
2018-05-16T02:26:36.662Z,99.99
2018-05-16T02:31:32.928Z,99.99
2018-05-16T02:36:28.720Z,99.99
2018-05-16T02:41:24.736Z,99.99
2018-05-16T02:46:20.582Z,99.99
2018-05-16T02:51:17.282Z,99.99
2018-05-16T02:56:13.548Z,99.99
2018-05-16T03:01:08.828Z,99.99
2018-05-16T03:06:04.749Z,99.99
2018-05-16T03:11:00.240Z,99.99
2018-05-16T03:15:56.185Z,99.99
2018-05-16T03:20:51.989Z,99.99
2018-05-16T03:25:47.477Z,99.99
2018-05-16T03:30:43.738Z,99.99
2018-05-16T03:35:39.604Z,99.99
2018-05-16T03:40:35.924Z,99.99
2018-05-16T03:45:31.494Z,99.99
2018-05-16T03:50:27.460Z,99.99
2018-05-16T03:55:24.382Z,99.99
2018-05-16T04:00:19.842Z,99.99
2018-05-16T04:05:16.761Z,99.99
2018-05-16T04:10:12.527Z,99.99
2018-05-16T04:15:09.563Z,99.99
2018-05-16T04:20:05.085Z,99.99
2018-05-16T04:25:01.779Z,99.99
2018-05-16T04:29:58.240Z,99.99
2018-05-16T04:34:54.548Z,99.99
2018-05-16T04:39:51.954Z,99.99
2018-05-16T04:44:48.178Z,99.99
2018-05-16T04:49:44.485Z,99.99
2018-05-16T04:54:40.636Z,99.99
2018-05-16T04:59:36.476Z,99.99
2018-05-16T05:04:32.873Z,96.61
2018-05-16T05:09:29.788Z,98.34
2018-05-16T05:14:25.378Z,95.36
2018-05-16T05:19:21.097Z,94.59
2018-05-16T05:24:17.554Z,94.59
2018-05-16T05:29:13.311Z,95.07
2018-05-16T05:34:10.022Z,95.50
2018-05-16T05:39:05.605Z,92.82
2018-05-16T05:44:02.121Z,91.42
2018-05-16T05:48:58.718Z,89.01
2018-05-16T05:53:54.841Z,86.99
2018-05-16T05:58:50.556Z,88.39
2018-05-16T06:03:46.410Z,87.34
2018-05-16T06:08:42.249Z,86.90
2018-05-16T06:13:38.138Z,89.83
2018-05-16T06:18:34.096Z,90.51
2018-05-16T06:23:30.187Z,92.62
2018-05-16T06:28:27.044Z,93.01
2018-05-16T06:33:22.429Z,95.26
2018-05-16T06:38:17.932Z,97.71
2018-05-16T06:43:14.829Z,96.89
2018-05-16T06:48:10.428Z,97.19
2018-05-16T06:53:06.203Z,96.42
2018-05-16T06:58:02.230Z,99.99
2018-05-16T07:02:57.685Z,98.91
2018-05-16T07:07:53.536Z,99.63
2018-05-16T07:12:50.419Z,99.99
2018-05-16T07:17:46.003Z,99.99
2018-05-16T07:22:41.934Z,99.99
2018-05-16T07:27:38.249Z,99.99
2018-05-16T07:32:34.059Z,99.99
2018-05-16T07:37:30.004Z,99.99
2018-05-16T07:42:25.812Z,99.99
2018-05-16T07:47:21.871Z,99.99
2018-05-16T07:52:17.491Z,99.99
2018-05-16T07:57:13.309Z,99.99
2018-05-16T08:02:09.749Z,99.99
2018-05-16T08:07:07.291Z,99.99
2018-05-16T08:12:03.350Z,99.99
2018-05-16T08:16:59.408Z,99.99
2018-05-16T08:21:56.459Z,99.99
2018-05-16T08:26:52.933Z,99.11
2018-05-16T08:31:49.537Z,96.61
2018-05-16T08:36:46.140Z,91.13
2018-05-16T08:41:43.054Z,92.29
2018-05-16T08:46:39.113Z,90.26
2018-05-16T08:51:35.167Z,85.74
2018-05-16T08:56:32.111Z,81.63
2018-05-16T09:01:28.849Z,77.58
2018-05-16T09:06:26.305Z,74.30
2018-05-16T09:11:22.774Z,74.45
2018-05-16T09:16:18.542Z,74.40
2018-05-16T09:21:15.196Z,74.78
2018-05-16T09:26:10.944Z,72.79
2018-05-16T09:31:06.725Z,73.78
2018-05-16T09:36:01.669Z,75.76
2018-05-16T09:40:56.830Z,77.84
2018-05-16T09:45:52.690Z,79.43
2018-05-16T09:50:48.784Z,78.08
2018-05-16T09:55:45.341Z,76.86
2018-05-16T10:00:41.906Z,74.40
2018-05-16T10:05:38.851Z,75.93
2018-05-16T10:10:34.476Z,78.88
2018-05-16T10:15:30.303Z,77.92
2018-05-16T10:20:26.630Z,75.59
2018-05-16T10:25:22.235Z,77.28
2018-05-16T10:30:17.966Z,78.31
2018-05-16T10:35:20.475Z,77.92
2018-05-16T10:40:18.422Z,77.48
2018-05-16T10:45:15.155Z,76.13
2018-05-16T10:50:11.136Z,75.78
2018-05-16T10:55:07.279Z,76.03
2018-05-16T11:00:03.811Z,74.57
2018-05-16T11:05:02.479Z,68.10
2018-05-16T11:09:59.397Z,68.07
2018-05-16T11:14:53.775Z,71.38
2018-05-16T11:19:49.275Z,71.77
2018-05-16T11:24:45.818Z,70.70
2018-05-16T11:29:42.391Z,69.58
2018-05-16T11:34:44.959Z,67.59
2018-05-16T11:39:40.668Z,68.19
2018-05-16T11:44:36.918Z,68.10
2018-05-16T11:49:32.953Z,68.23
2018-05-16T11:54:29.779Z,69.84
2018-05-16T11:59:25.767Z,69.78
2018-05-16T12:04:22.603Z,68.75
2018-05-16T12:09:18.658Z,69.42
2018-05-16T12:14:15.685Z,66.56
2018-05-16T12:19:14.910Z,66.30
2018-05-16T12:24:12.344Z,64.47
2018-05-16T12:29:08.623Z,63.66
2018-05-16T12:34:04.463Z,66.40
2018-05-16T12:38:59.554Z,68.36
2018-05-16T12:43:55.117Z,68.94
2018-05-16T12:48:51.403Z,68.68
2018-05-16T12:53:48.839Z,69.23
2018-05-16T12:58:44.058Z,69.94
2018-05-16T13:03:41.256Z,70.04
2018-05-16T13:08:37.950Z,70.87
2018-05-16T13:13:33.771Z,71.74
2018-05-16T13:18:29.518Z,73.42
2018-05-16T13:23:25.502Z,75.70
2018-05-16T13:28:22.602Z,75.02
2018-05-16T13:33:19.500Z,74.48
2018-05-16T13:38:16.752Z,72.14
2018-05-16T13:43:13.258Z,69.46
2018-05-16T13:48:09.062Z,72.00
2018-05-16T13:53:04.714Z,73.13
2018-05-16T13:58:01.165Z,73.16
2018-05-16T14:02:57.085Z,72.30
2018-05-16T14:07:54.232Z,73.84
2018-05-16T14:12:50.038Z,72.58
2018-05-16T14:17:45.714Z,72.10
2018-05-16T14:22:41.513Z,72.20
2018-05-16T14:27:37.360Z,73.65
2018-05-16T14:32:33.535Z,69.92
2018-05-16T14:37:29.877Z,69.43
2018-05-16T14:42:26.067Z,65.95
2018-05-16T14:47:22.215Z,66.63
2018-05-16T14:52:17.744Z,68.24
2018-05-16T14:57:13.268Z,68.33
2018-05-16T15:02:08.931Z,68.24
2018-05-16T15:07:06.016Z,67.75
2018-05-16T15:12:02.125Z,66.72
2018-05-16T15:16:58.612Z,68.17
2018-05-16T15:21:56.225Z,68.08
2018-05-16T15:26:51.692Z,68.17
2018-05-16T15:31:48.555Z,69.04
2018-05-16T15:36:43.669Z,69.59
2018-05-16T15:41:38.916Z,71.84
2018-05-16T15:46:33.884Z,67.40
2018-05-16T15:51:29.119Z,70.66
2018-05-16T15:56:24.575Z,72.61
2018-05-16T16:01:21.142Z,75.15
2018-05-16T16:06:16.493Z,77.58
2018-05-16T16:11:12.138Z,80.84
2018-05-16T16:16:09.696Z,83.53
2018-05-16T16:21:05.789Z,79.44
2018-05-16T16:26:02.895Z,80.50
2018-05-16T16:30:58.689Z,79.73
2018-05-16T16:35:55.715Z,80.11
2018-05-16T16:40:51.965Z,78.42
2018-05-16T16:45:48.419Z,77.88
2018-05-16T16:50:44.427Z,80.04
2018-05-16T16:55:40.863Z,80.23
2018-05-16T17:00:37.214Z,79.89
2018-05-16T17:05:33.302Z,79.60
2018-05-16T17:10:29.194Z,79.79
2018-05-16T17:15:25.073Z,79.79
2018-05-16T17:20:21.326Z,80.14
2018-05-16T17:25:17.469Z,77.34
2018-05-16T17:30:14.347Z,76.25
2018-05-16T17:35:09.770Z,76.69
2018-05-16T17:40:05.403Z,76.50
2018-05-16T17:45:01.069Z,77.65
2018-05-16T17:49:57.098Z,76.78
2018-05-16T17:54:53.172Z,76.65
2018-05-16T17:59:48.843Z,77.29
2018-05-16T18:04:44.429Z,78.15
2018-05-16T18:09:41.007Z,79.42
2018-05-16T18:14:36.596Z,81.05
2018-05-16T18:19:32.254Z,79.32
2018-05-16T18:24:27.810Z,78.84
2018-05-16T18:29:23.832Z,78.32
2018-05-16T18:34:21.241Z,79.09
2018-05-16T18:39:16.511Z,79.53
2018-05-16T18:44:12.067Z,81.45
2018-05-16T18:49:07.680Z,82.18
2018-05-16T18:54:03.459Z,82.75
2018-05-16T18:58:59.438Z,83.33
2018-05-16T19:03:55.022Z,83.00
2018-05-16T19:08:50.692Z,83.09
2018-05-16T19:13:47.564Z,84.05
2018-05-16T19:18:43.900Z,84.97
2018-05-16T19:23:39.701Z,84.88
2018-05-16T19:28:35.535Z,86.50
2018-05-16T19:33:31.309Z,88.80
2018-05-16T19:38:27.280Z,88.80
2018-05-16T19:43:23.131Z,90.05
2018-05-16T19:48:19.041Z,89.86
2018-05-16T19:53:15.020Z,93.35
2018-05-16T19:58:10.829Z,96.80
2018-05-16T20:03:06.925Z,99.99
2018-05-16T20:08:02.714Z,99.99
2018-05-16T20:12:58.638Z,99.99
2018-05-16T20:17:54.685Z,99.99
2018-05-16T20:22:51.407Z,98.09
2018-05-16T20:27:46.875Z,97.56
2018-05-16T20:32:43.671Z,99.99
2018-05-16T20:37:39.240Z,99.99
2018-05-16T20:42:34.977Z,99.99
2018-05-16T20:47:30.719Z,99.99
2018-05-16T20:52:26.575Z,99.99
2018-05-16T20:57:23.224Z,99.99
2018-05-16T21:02:18.850Z,99.99
2018-05-16T21:07:14.771Z,99.99
2018-05-16T21:12:11.704Z,99.99
2018-05-16T21:17:07.244Z,99.99
2018-05-16T21:22:02.676Z,99.99
2018-05-16T21:26:58.494Z,99.99
2018-05-16T21:31:54.723Z,99.99
2018-05-16T21:36:50.486Z,99.99
2018-05-16T21:41:46.416Z,99.99
2018-05-16T21:46:43.244Z,99.99
2018-05-16T21:51:38.713Z,99.99
2018-05-16T21:56:34.928Z,99.99
2018-05-16T22:01:31.807Z,99.99
2018-05-16T22:06:27.333Z,99.99
2018-05-16T22:11:23.662Z,99.99
2018-05-16T22:16:19.492Z,99.99
2018-05-16T22:21:16.298Z,99.99
2018-05-16T22:26:11.683Z,99.99
2018-05-16T22:31:07.771Z,99.99
2018-05-16T22:36:03.159Z,99.99
2018-05-16T22:40:59.132Z,99.99
2018-05-16T22:45:55.168Z,99.99
2018-05-16T22:50:50.691Z,99.99
2018-05-16T22:55:47.177Z,99.99
2018-05-16T23:00:42.975Z,99.99
2018-05-16T23:05:39.536Z,99.99
2018-05-16T23:10:36.397Z,99.99
2018-05-16T23:15:31.831Z,99.99
2018-05-16T23:20:27.572Z,99.99
2018-05-16T23:25:24.054Z,99.99
2018-05-16T23:30:19.720Z,99.99
2018-05-16T23:35:16.624Z,99.99
2018-05-16T23:40:12.041Z,99.99
2018-05-16T23:45:07.744Z,99.99
2018-05-16T23:50:03.321Z,99.99
2018-05-16T23:54:58.721Z,99.99
2018-05-16T23:59:54.624Z,99.99
